Have a Safe July 4th! 

Flight Track Log - Related Links

Times and Time Zones

All times are in EDT time to prevent confusion due to time zone crossing. See the UAL4843 flight status page for this flight to view local times or setup timezone preferences in your user account.

Time Position Orientation Groundspeed Altitude Reporting Facility
EDT Latitude Longitude Course Direction KTS MPH feet Rate Location/Type
Fri 01:51:00 PM 40.3405 -74.7666 232° Southwest  Level Estimated
Fri 01:52:00 PM 40.3111 -74.8162 232° Southwest  Level Estimated
Fri 01:53:00 PM 40.2816 -74.8657 232° Southwest  Level Estimated
Fri 01:54:00 PM 40.2521 -74.9151 232° Southwest  Level Estimated
Fri 01:55:00 PM 40.2225 -74.9645 232° Southwest  Level Estimated
Fri 01:56:00 PM 40.1930 -75.0139 232° Southwest  Level Estimated
Fri 01:57:00 PM 40.1634 -75.0632 232° Southwest  Level Estimated
Fri 01:58:00 PM 40.1338 -75.1125 232° Southwest  Level Estimated
Fri 01:59:00 PM 40.1042 -75.1618 232° Southwest  Level Estimated
Fri 02:00:00 PM 40.0746 -75.2110 232° Southwest  Level Estimated
Fri 02:01:00 PM 40.0449 -75.2601 232° Southwest  Level Estimated
Fri 02:02:00 PM 40.0152 -75.3093 232° Southwest  Level Estimated
Fri 02:03:00 PM 39.9855 -75.3583 232° Southwest  Level Estimated
Fri 02:04:00 PM 39.9558 -75.4074 232° Southwest  Level Estimated
Fri 02:05:00 PM 39.9260 -75.4564 232° Southwest  Level Estimated
Fri 02:06:00 PM 39.8963 -75.5053 232° Southwest  Level Estimated
Fri 02:07:00 PM 39.8665 -75.5542 232° Southwest  Level Estimated
Fri 02:08:00 PM 39.8367 -75.6031 232° Southwest  Level Estimated
Fri 02:09:00 PM 39.8069 -75.6519 232° Southwest  Level Estimated
Fri 02:10:00 PM 39.7771 -75.7007 231° Southwest  Level Estimated

Login

Don't have an account? Register now (free) for customized features, flight alerts, and more!